Terminal Aerodrome Forecast
Issued by NWS St Louis, MO

Home | Current Version | Previous Version | Text Only | Print | Product List | Glossary On
Versions: 1 2 3 4 5 6 7 8 9 10 11 12 13 14 15 16 17 18
000
FTUS43 KLSX 250500
TAFCOU
TAF
KCOU 250530Z 2506/2606 22008KT P6SM BKN120
     FM250700 25010KT P6SM -RA OVC040
     FM251100 26012KT 3SM -RA BR OVC012
     FM251400 30015KT P6SM VCSH OVC012
     FM251800 34015G25KT 3SM -RASN BR SCT006 OVC012
     FM260200 35012KT P6SM VCSH OVC012=

USA.gov is the U.S. government's official web portal to all federal, state and local government web resources and services.